Country
Station

 

Weather  for  Great Bend Automatic Weather Observing/Reporting System  -  United States    United States

  
27 °C (81 °F)
    
 
 

Current METAR for Great Bend Automatic Weather Observing/Reporting System is :

KGBD 191456Z AUTO 20014G21KT 10SM CLR 27/20 A2989 RMK AO2 SLP100 T02720200 53002

 

This is a report for Great Bend Automatic Weather Observing/Reporting System - United States.
 
The report was made 44 minutes ago, at 14:56 UTC .
The wind was blowing at a speed of 7.2 meters per second (16.1 miles per hour) with gusts up to 10.8 meters per second (24.2 miles per hour) from south/southwest (200°).
 
The temperature was 27 °C (81 °F), with a dew-point at 20 °C (68 °F).
The temperature felt like 29 °C (84 °F).
 
The atmospheric pressure was 1012 hPa (29.89 inHg).
The relative humidity was 65.6%.
 
The sky was clear.
 
The overall visibility was 16.1 kilometers (10.0 miles).
 

 
 
 
 

Country :   A   B   C   D   E   F   G   H   I   J   K   L   M   N   O   P   Q   R   S   T   U   V   W   Y   Z

 

Site Info  |  Disclaimer  |  Credits  |  Privacy
Contact us  |  Add to favorites
© 2013-2018 METARs - All rights reserved